Time;durP1;ratioP1;P1;durP2;ratioP2;P2;SDS_P1;SDS_P2;PMS_P1;PMS_P2;Temp;Humidity;BMP_temperature;BMP_pressure;BME280_temperature;BME280_humidity;BME280_pressure;Samples;Min_cycle;Max_cycle;Signal;HPM_P1;HPM_P2
2021/10/04 00:00:21;;;;;;;1.15;1.05;;;15.50;72.60;;;;;;4865445;29;20104;-84
2021/10/04 00:02:47;;;;;;;0.90;0.90;;;15.50;72.50;;;;;;4865948;29;20097;-86
2021/10/04 00:05:13;;;;;;;1.58;0.95;;;15.50;72.50;;;;;;4881556;29;20100;-84
2021/10/04 00:07:39;;;;;;;0.95;0.88;;;15.50;72.60;;;;;;4851234;29;20351;-83
2021/10/04 00:10:10;;;;;;;1.05;0.82;;;15.50;72.50;;;;;;4866132;29;20401;-84
2021/10/04 00:12:36;;;;;;;1.40;1.00;;;15.50;72.60;;;;;;4881707;29;20037;-85
2021/10/04 00:15:04;;;;;;;1.55;0.95;;;15.50;72.50;;;;;;4865116;29;20036;-84
2021/10/04 00:17:30;;;;;;;1.25;1.00;;;15.40;72.50;;;;;;4880697;29;20041;-85
2021/10/04 00:19:56;;;;;;;1.50;1.00;;;15.40;72.50;;;;;;4911578;29;20037;-82
2021/10/04 00:22:21;;;;;;;0.80;0.80;;;15.50;72.50;;;;;;4896828;29;20040;-83
2021/10/04 00:24:47;;;;;;;0.90;0.90;;;15.40;72.50;;;;;;4865194;29;20033;-84
2021/10/04 00:27:13;;;;;;;0.95;0.90;;;15.50;72.50;;;;;;4864762;29;20096;-84
2021/10/04 00:29:39;;;;;;;0.80;0.80;;;15.50;73.20;;;;;;4849633;29;20037;-84
2021/10/04 00:32:05;;;;;;;1.13;1.02;;;15.50;72.30;;;;;;4850063;29;20052;-83
2021/10/04 00:34:31;;;;;;;1.15;1.00;;;15.40;72.50;;;;;;4865085;29;20048;-83
2021/10/04 00:36:56;;;;;;;2.05;1.23;;;15.50;72.60;;;;;;4880328;29;20482;-84
2021/10/04 00:39:22;;;;;;;1.13;0.90;;;15.40;72.50;;;;;;4865062;29;20463;-83
2021/10/04 00:41:48;;;;;;;1.20;0.85;;;15.40;72.50;;;;;;4864913;29;20036;-83
2021/10/04 00:44:14;;;;;;;1.00;0.90;;;15.40;72.50;;;;;;4911839;29;20021;-82
2021/10/04 00:46:40;;;;;;;1.58;1.10;;;15.40;72.60;;;;;;4865731;29;20121;-84
2021/10/04 00:49:06;;;;;;;1.25;1.00;;;15.40;72.50;;;;;;4880517;29;20068;-83
2021/10/04 00:51:32;;;;;;;1.23;0.98;;;15.40;72.50;;;;;;4896594;29;20037;-84
2021/10/04 00:53:58;;;;;;;0.80;0.77;;;15.40;72.50;;;;;;4849679;29;20055;-84
2021/10/04 00:56:24;;;;;;;1.88;0.90;;;15.40;72.60;;;;;;4880649;29;20386;-82
2021/10/04 00:58:50;;;;;;;1.25;1.10;;;15.40;72.50;;;;;;4865575;29;20025;-84
2021/10/04 01:01:16;;;;;;;1.02;0.90;;;15.40;72.60;;;;;;4864958;29;20063;-84
2021/10/04 01:03:42;;;;;;;1.42;0.90;;;15.40;72.60;;;;;;4880403;29;20636;-83
2021/10/04 01:06:08;;;;;;;0.80;0.80;;;15.40;72.60;;;;;;4880193;29;20053;-84
2021/10/04 01:08:34;;;;;;;0.80;0.80;;;15.40;72.60;;;;;;4896890;29;20160;-84
2021/10/04 01:11:00;;;;;;;0.88;0.88;;;15.40;72.60;;;;;;4896571;29;20053;-84
2021/10/04 01:13:26;;;;;;;1.52;0.90;;;15.30;72.50;;;;;;4864637;29;20029;-83
2021/10/04 01:15:52;;;;;;;1.67;1.02;;;15.30;72.50;;;;;;4864576;29;20041;-83
2021/10/04 01:18:18;;;;;;;0.88;0.88;;;15.40;72.60;;;;;;4895671;29;20048;-86
2021/10/04 01:20:43;;;;;;;1.05;1.00;;;15.40;72.60;;;;;;4880140;29;20033;-83
2021/10/04 01:23:09;;;;;;;0.93;0.80;;;15.30;72.50;;;;;;4864374;29;20044;-84
2021/10/04 01:25:35;;;;;;;0.98;0.90;;;15.30;72.50;;;;;;4879659;29;20037;-82
2021/10/04 01:28:01;;;;;;;1.08;0.85;;;15.30;72.50;;;;;;4849354;29;20204;-83
2021/10/04 01:30:30;;;;;;;0.93;0.90;;;15.30;72.50;;;;;;4865020;29;20037;-84
2021/10/04 01:32:56;;;;;;;0.90;0.90;;;15.30;72.60;;;;;;4880045;29;20117;-86
2021/10/04 01:35:23;;;;;;;1.63;1.10;;;15.30;72.50;;;;;;4880290;29;20029;-83
2021/10/04 01:37:50;;;;;;;0.90;0.90;;;15.30;72.60;;;;;;4910440;29;20049;-83
2021/10/04 01:40:16;;;;;;;1.00;0.90;;;15.30;72.60;;;;;;4880087;29;20037;-83
2021/10/04 01:42:44;;;;;;;0.90;0.90;;;15.30;72.60;;;;;;4880524;29;20029;-84
2021/10/04 01:45:18;;;;;;;1.08;0.98;;;15.30;72.60;;;;;;4864709;29;20033;-84
2021/10/04 01:47:45;;;;;;;1.20;0.95;;;15.30;72.60;;;;;;4911090;29;20041;-83
2021/10/04 01:50:12;;;;;;;0.93;0.90;;;15.30;72.60;;;;;;4864081;29;20056;-85
2021/10/04 01:52:39;;;;;;;0.80;0.80;;;15.30;72.60;;;;;;4879501;29;20044;-83
2021/10/04 01:55:06;;;;;;;0.85;0.85;;;15.30;72.60;;;;;;4879855;29;20045;-83
2021/10/04 01:57:32;;;;;;;0.80;0.80;;;15.30;72.60;;;;;;4879636;29;20041;-84
2021/10/04 02:00:01;;;;;;;0.80;0.80;;;15.30;72.60;;;;;;4895448;29;20363;-84
2021/10/04 02:02:37;;;;;;;0.98;0.77;;;15.30;72.60;;;;;;4880630;29;20135;-89
2021/10/04 02:05:04;;;;;;;1.65;1.20;;;15.20;72.50;;;;;;4897806;29;20065;-83
2021/10/04 02:07:30;;;;;;;0.80;0.80;;;15.30;72.60;;;;;;4867392;29;20539;-86
2021/10/04 02:09:57;;;;;;;0.98;0.85;;;15.20;72.50;;;;;;4899802;29;20060;-83
2021/10/04 02:12:23;;;;;;;0.70;0.70;;;15.20;72.50;;;;;;4899741;29;20032;-84
2021/10/04 02:14:48;;;;;;;1.15;0.98;;;15.20;72.50;;;;;;4899384;29;20020;-83
2021/10/04 02:17:14;;;;;;;1.02;0.90;;;15.20;72.50;;;;;;4882347;29;20044;-84
2021/10/04 02:19:40;;;;;;;0.80;0.80;;;15.20;72.50;;;;;;4883258;29;20077;-83
2021/10/04 02:22:05;;;;;;;0.85;0.85;;;15.20;72.50;;;;;;4882604;29;20123;-85
2021/10/04 02:24:31;;;;;;;0.75;0.73;;;15.20;72.60;;;;;;4898591;29;20040;-82
2021/10/04 02:26:57;;;;;;;0.82;0.82;;;15.20;72.60;;;;;;4882894;29;20395;-83
2021/10/04 02:29:23;;;;;;;0.88;0.88;;;15.20;72.60;;;;;;4866549;29;20374;-83
2021/10/04 02:31:49;;;;;;;1.00;0.90;;;15.20;72.50;;;;;;4866611;29;20131;-83
2021/10/04 02:34:15;;;;;;;1.10;0.90;;;15.20;72.50;;;;;;4882548;29;20091;-83
2021/10/04 02:36:41;;;;;;;1.02;0.90;;;15.20;72.50;;;;;;4867694;29;20068;-84
2021/10/04 02:39:07;;;;;;;0.77;0.77;;;15.20;72.50;;;;;;4866501;29;20033;-83
2021/10/04 02:41:32;;;;;;;0.80;0.80;;;15.20;72.50;;;;;;4881923;29;20123;-83
2021/10/04 02:43:58;;;;;;;0.80;0.73;;;15.20;72.50;;;;;;4867514;29;20032;-83
2021/10/04 02:46:24;;;;;;;0.70;0.70;;;15.20;72.60;;;;;;4866053;29;20029;-84
2021/10/04 02:48:50;;;;;;;0.80;0.75;;;15.20;72.50;;;;;;4851898;29;20182;-83
2021/10/04 02:51:15;;;;;;;0.80;0.80;;;15.20;72.50;;;;;;4870118;29;20132;-82
2021/10/04 02:53:41;;;;;;;0.70;0.70;;;15.20;72.60;;;;;;4916481;29;20066;-82
2021/10/04 02:56:07;;;;;;;1.23;0.90;;;15.20;72.60;;;;;;4885714;29;20454;-84
2021/10/04 02:58:33;;;;;;;1.00;0.80;;;15.20;72.60;;;;;;4901858;29;20032;-83
2021/10/04 03:00:59;;;;;;;0.93;0.93;;;15.20;72.60;;;;;;4901406;29;20088;-83
2021/10/04 03:03:25;;;;;;;0.80;0.80;;;15.20;72.60;;;;;;4902155;29;20537;-84
2021/10/04 03:05:51;;;;;;;0.80;0.80;;;15.20;72.60;;;;;;4869673;29;20060;-84
2021/10/04 03:08:17;;;;;;;0.90;0.80;;;15.10;72.50;;;;;;4885292;29;20064;-82
2021/10/04 03:10:43;;;;;;;0.85;0.85;;;15.20;72.60;;;;;;4900675;29;20473;-83
2021/10/04 03:13:09;;;;;;;0.70;0.70;;;15.20;72.60;;;;;;4869447;29;20088;-82
2021/10/04 03:15:35;;;;;;;1.05;0.93;;;15.10;72.50;;;;;;4900653;29;20078;-85
2021/10/04 03:18:02;;;;;;;0.90;0.90;;;15.10;72.50;;;;;;4869451;29;20041;-83
2021/10/04 03:20:27;;;;;;;1.00;0.90;;;15.10;72.50;;;;;;4901782;29;20091;-83
2021/10/04 03:22:54;;;;;;;0.60;0.60;;;15.10;72.50;;;;;;4884785;29;20351;-83
2021/10/04 03:25:21;;;;;;;1.02;0.90;;;15.10;72.50;;;;;;4884567;29;20037;-82
2021/10/04 03:27:47;;;;;;;0.82;0.82;;;15.10;72.60;;;;;;4869169;29;20040;-85
2021/10/04 03:30:14;;;;;;;0.80;0.80;;;15.10;72.50;;;;;;4869130;29;20033;-83
2021/10/04 03:32:40;;;;;;;0.82;0.82;;;15.10;72.50;;;;;;4884865;29;20035;-83
2021/10/04 03:35:08;;;;;;;0.77;0.73;;;15.10;72.50;;;;;;4900196;29;20070;-81
2021/10/04 03:37:34;;;;;;;0.73;0.73;;;15.10;72.50;;;;;;4884382;29;20044;-83
2021/10/04 03:40:00;;;;;;;0.80;0.80;;;15.10;72.50;;;;;;4884844;29;20040;-82
2021/10/04 03:42:26;;;;;;;1.05;0.70;;;15.10;72.50;;;;;;4884643;29;20084;-82
2021/10/04 03:44:51;;;;;;;0.70;0.70;;;15.10;72.50;;;;;;4868496;29;20051;-83
2021/10/04 03:47:18;;;;;;;0.70;0.70;;;15.10;72.50;;;;;;4869095;29;20036;-86
2021/10/04 03:49:43;;;;;;;0.70;0.70;;;15.10;72.50;;;;;;4884094;29;20067;-83
2021/10/04 03:52:09;;;;;;;0.60;0.60;;;15.00;72.50;;;;;;4900158;29;20056;-83
2021/10/04 03:54:35;;;;;;;0.60;0.60;;;15.10;72.50;;;;;;4884000;29;20092;-83
2021/10/04 03:57:01;;;;;;;1.40;0.90;;;15.00;72.50;;;;;;4884465;29;20041;-84
2021/10/04 03:59:27;;;;;;;0.70;0.70;;;15.10;72.50;;;;;;4868765;29;20123;-80
2021/10/04 04:01:53;;;;;;;0.80;0.80;;;15.10;72.50;;;;;;4882793;29;20578;-80
2021/10/04 04:04:18;;;;;;;0.80;0.80;;;15.10;72.50;;;;;;4900071;29;20032;-83
2021/10/04 04:06:44;;;;;;;1.10;1.00;;;15.00;72.40;;;;;;4864583;29;20065;-80
2021/10/04 04:09:10;;;;;;;1.17;0.80;;;15.00;72.50;;;;;;4880709;29;20069;-80
2021/10/04 04:11:36;;;;;;;0.77;0.77;;;15.00;72.50;;;;;;4880331;29;20445;-82
2021/10/04 04:14:02;;;;;;;1.45;0.90;;;15.00;72.50;;;;;;4880719;29;20199;-80
2021/10/04 04:16:28;;;;;;;0.85;0.73;;;15.00;72.50;;;;;;4896036;29;20038;-81
2021/10/04 04:18:54;;;;;;;0.70;0.70;;;15.00;72.50;;;;;;4880537;29;20047;-81
2021/10/04 04:21:20;;;;;;;0.90;0.82;;;15.00;72.50;;;;;;4864704;29;20029;-83
2021/10/04 04:23:45;;;;;;;0.70;0.70;;;15.00;72.50;;;;;;4880055;29;20041;-82
2021/10/04 04:26:11;;;;;;;0.73;0.73;;;15.00;72.50;;;;;;4881515;29;20036;-83
2021/10/04 04:28:37;;;;;;;0.90;0.80;;;15.00;72.50;;;;;;4880186;29;20501;-82
2021/10/04 04:31:03;;;;;;;0.88;0.70;;;15.00;72.50;;;;;;4864852;29;20156;-81
2021/10/04 04:33:29;;;;;;;0.70;0.70;;;15.00;72.50;;;;;;4881602;29;20037;-81
2021/10/04 04:35:55;;;;;;;0.80;0.80;;;15.00;72.50;;;;;;4881423;29;20037;-82
2021/10/04 04:38:21;;;;;;;0.85;0.85;;;15.00;72.50;;;;;;4880650;29;20486;-84
2021/10/04 04:40:47;;;;;;;1.27;0.70;;;15.00;72.50;;;;;;4865668;29;20033;-85
2021/10/04 04:43:13;;;;;;;1.00;0.80;;;15.00;72.50;;;;;;4880583;29;20084;-85
2021/10/04 04:45:41;;;;;;;0.73;0.73;;;15.00;72.50;;;;;;4880754;29;20037;-84
2021/10/04 04:48:07;;;;;;;0.60;0.60;;;15.00;72.50;;;;;;4865551;29;20481;-83
2021/10/04 04:50:33;;;;;;;0.82;0.70;;;15.00;73.10;;;;;;4880533;29;20040;-84
2021/10/04 04:52:59;;;;;;;1.08;0.90;;;15.00;72.50;;;;;;4880935;29;20029;-84
2021/10/04 04:55:24;;;;;;;0.70;0.70;;;15.00;72.50;;;;;;4882479;29;20029;-84
2021/10/04 04:57:50;;;;;;;1.48;0.80;;;15.00;72.50;;;;;;4880756;29;20078;-84
2021/10/04 05:00:16;;;;;;;1.65;0.90;;;15.00;72.50;;;;;;4881211;29;20481;-84
2021/10/04 05:02:44;;;;;;;0.77;0.77;;;15.00;72.50;;;;;;4880607;29;20039;-83
2021/10/04 05:05:11;;;;;;;0.80;0.80;;;15.00;72.50;;;;;;4865876;29;20056;-83
2021/10/04 05:07:37;;;;;;;0.70;0.70;;;15.00;72.50;;;;;;4883400;29;20028;-83
2021/10/04 05:10:05;;;;;;;0.63;0.63;;;15.00;72.50;;;;;;4883669;29;20043;-83
2021/10/04 05:12:31;;;;;;;0.70;0.70;;;15.00;72.50;;;;;;4914852;29;20167;-82
2021/10/04 05:14:57;;;;;;;0.70;0.70;;;15.00;72.50;;;;;;4883369;29;20040;-81
2021/10/04 05:17:23;;;;;;;0.75;0.75;;;15.00;72.50;;;;;;4867385;29;20050;-80
2021/10/04 05:19:49;;;;;;;1.17;1.02;;;15.00;72.60;;;;;;4883432;29;20028;-81
2021/10/04 05:22:14;;;;;;;0.80;0.80;;;15.00;72.50;;;;;;4882400;29;20056;-81
2021/10/04 05:24:40;;;;;;;1.10;0.80;;;15.00;72.50;;;;;;4867765;29;20040;-80
2021/10/04 05:27:06;;;;;;;0.70;0.70;;;14.90;72.50;;;;;;4867026;29;20465;-81
2021/10/04 05:29:32;;;;;;;1.67;0.90;;;15.00;72.50;;;;;;4882814;29;20047;-81
2021/10/04 05:31:58;;;;;;;0.70;0.70;;;15.00;72.50;;;;;;4882418;29;20048;-80
2021/10/04 05:34:23;;;;;;;0.68;0.68;;;14.90;72.50;;;;;;4867171;29;20438;-81
2021/10/04 05:36:49;;;;;;;1.50;0.80;;;15.00;72.60;;;;;;4882370;29;20434;-81
2021/10/04 05:39:15;;;;;;;0.70;0.70;;;14.90;72.50;;;;;;4882150;29;20029;-79
2021/10/04 05:41:41;;;;;;;0.82;0.82;;;14.90;72.50;;;;;;4867117;29;20385;-81
2021/10/04 05:44:07;;;;;;;1.00;0.90;;;14.90;72.50;;;;;;4867180;29;20031;-79
2021/10/04 05:46:35;;;;;;;0.80;0.80;;;14.90;72.50;;;;;;4866558;29;20037;-80
2021/10/04 05:49:01;;;;;;;0.75;0.75;;;14.90;72.50;;;;;;4866382;29;20063;-81
2021/10/04 05:51:27;;;;;;;0.85;0.80;;;14.90;72.50;;;;;;4866485;29;20092;-81
2021/10/04 05:53:52;;;;;;;0.93;0.80;;;14.90;72.50;;;;;;4913803;29;20072;-81
2021/10/04 05:56:18;;;;;;;0.80;0.80;;;14.90;72.50;;;;;;4866811;29;20059;-82
2021/10/04 05:58:44;;;;;;;0.73;0.73;;;14.90;72.50;;;;;;4867572;29;20048;-81
2021/10/04 06:01:10;;;;;;;1.15;0.80;;;14.90;72.50;;;;;;4882796;29;20037;-82
2021/10/04 06:03:36;;;;;;;0.90;0.70;;;14.90;72.50;;;;;;4882888;29;20470;-81
2021/10/04 06:06:02;;;;;;;0.80;0.80;;;14.90;72.50;;;;;;4882635;29;20455;-82
2021/10/04 06:08:27;;;;;;;0.65;0.65;;;14.90;72.50;;;;;;4882912;29;20044;-82
2021/10/04 06:10:53;;;;;;;0.77;0.77;;;14.90;72.50;;;;;;4867495;29;20037;-82
2021/10/04 06:13:19;;;;;;;0.90;0.90;;;14.90;72.50;;;;;;4882679;29;20032;-82
2021/10/04 06:15:45;;;;;;;0.95;0.80;;;14.90;73.20;;;;;;4867832;29;20514;-82
2021/10/04 06:18:12;;;;;;;1.05;0.80;;;14.90;72.50;;;;;;4867741;29;20044;-82
2021/10/04 06:20:39;;;;;;;1.02;0.80;;;14.90;72.50;;;;;;4883006;29;20029;-82
2021/10/04 06:23:06;;;;;;;0.73;0.70;;;14.90;72.60;;;;;;4898976;29;20035;-83
2021/10/04 06:25:32;;;;;;;0.82;0.80;;;14.90;72.60;;;;;;4885840;29;20086;-81
2021/10/04 06:27:58;;;;;;;0.70;0.70;;;14.90;72.50;;;;;;4870185;29;20485;-81
2021/10/04 06:30:24;;;;;;;1.08;0.90;;;14.90;72.50;;;;;;4886110;29;20068;-81
2021/10/04 06:32:51;;;;;;;0.70;0.70;;;14.90;72.50;;;;;;4901397;29;20059;-81
2021/10/04 06:35:16;;;;;;;0.70;0.70;;;14.90;72.60;;;;;;4870829;29;20518;-81
2021/10/04 06:37:42;;;;;;;0.63;0.63;;;14.90;72.50;;;;;;4885567;29;20123;-83
2021/10/04 06:40:09;;;;;;;0.95;0.88;;;14.80;72.50;;;;;;4902517;29;20039;-84
2021/10/04 06:42:35;;;;;;;1.25;0.88;;;14.90;72.60;;;;;;4902743;29;20033;-84
2021/10/04 06:45:01;;;;;;;0.70;0.70;;;14.90;72.60;;;;;;4885847;29;20071;-83
2021/10/04 06:47:27;;;;;;;1.13;0.80;;;14.90;72.50;;;;;;4870549;29;20068;-85
2021/10/04 06:49:53;;;;;;;0.70;0.70;;;14.90;72.50;;;;;;4870834;29;20037;-85
2021/10/04 06:52:19;;;;;;;1.60;0.90;;;14.90;72.60;;;;;;4886755;29;20040;-85
2021/10/04 06:54:45;;;;;;;1.05;0.80;;;14.90;72.60;;;;;;4886102;29;20036;-84
2021/10/04 06:57:11;;;;;;;1.05;0.88;;;14.90;72.60;;;;;;4902289;29;20041;-86
2021/10/04 06:59:36;;;;;;;0.75;0.75;;;14.90;72.60;;;;;;4886265;29;20041;-85
2021/10/04 07:02:03;;;;;;;0.70;0.70;;;14.90;72.60;;;;;;4886274;29;20033;-85
2021/10/04 07:04:29;;;;;;;1.63;0.80;;;14.90;72.60;;;;;;4885819;29;20033;-87
2021/10/04 07:06:55;;;;;;;1.23;0.80;;;14.90;72.60;;;;;;4900816;29;20116;-85
2021/10/04 07:09:21;;;;;;;0.82;0.80;;;14.90;72.60;;;;;;4869830;29;20096;-85
2021/10/04 07:11:47;;;;;;;0.90;0.70;;;14.90;72.60;;;;;;4870250;29;20442;-85
2021/10/04 07:14:12;;;;;;;0.93;0.85;;;14.90;72.60;;;;;;4901313;29;20389;-85
2021/10/04 07:16:38;;;;;;;0.93;0.90;;;14.90;72.60;;;;;;4869776;29;20079;-85
2021/10/04 07:19:04;;;;;;;0.70;0.70;;;14.90;72.60;;;;;;4901094;29;20067;-85
2021/10/04 07:21:31;;;;;;;0.93;0.70;;;14.90;72.60;;;;;;4869875;29;20028;-84
2021/10/04 07:23:57;;;;;;;0.77;0.77;;;14.90;72.60;;;;;;4885613;29;20028;-83
2021/10/04 07:26:23;;;;;;;0.82;0.82;;;14.90;72.60;;;;;;4901209;29;20037;-84
2021/10/04 07:28:50;;;;;;;1.67;0.82;;;14.90;72.60;;;;;;4902056;29;20085;-84
2021/10/04 07:31:17;;;;;;;0.80;0.75;;;14.90;72.60;;;;;;4870572;29;20040;-85
2021/10/04 07:33:44;;;;;;;0.80;0.80;;;14.90;72.60;;;;;;4902643;29;20093;-84
2021/10/04 07:36:10;;;;;;;1.02;0.88;;;14.90;72.60;;;;;;4884870;29;20037;-84
2021/10/04 07:38:36;;;;;;;0.70;0.70;;;14.90;72.60;;;;;;4869546;29;20060;-85
2021/10/04 07:41:05;;;;;;;0.85;0.80;;;15.00;72.70;;;;;;4885701;29;20039;-83
2021/10/04 07:43:31;;;;;;;1.15;0.70;;;14.90;72.60;;;;;;4900878;29;20040;-83
2021/10/04 07:45:57;;;;;;;1.00;0.75;;;14.90;72.60;;;;;;4869587;29;20033;-85
2021/10/04 07:48:24;;;;;;;1.25;0.90;;;14.90;72.60;;;;;;4869369;29;20147;-85
2021/10/04 07:50:50;;;;;;;0.70;0.70;;;14.90;72.60;;;;;;4885118;29;20036;-83
2021/10/04 07:53:16;;;;;;;1.05;0.80;;;15.00;72.70;;;;;;4884761;29;20035;-84
2021/10/04 07:55:42;;;;;;;0.75;0.70;;;15.00;72.70;;;;;;4884719;29;20115;-84
2021/10/04 07:58:09;;;;;;;0.77;0.77;;;14.90;72.60;;;;;;4870248;29;20067;-84
2021/10/04 08:00:35;;;;;;;1.00;0.80;;;14.90;72.70;;;;;;4885040;29;20504;-84
2021/10/04 08:03:01;;;;;;;1.00;1.00;;;14.90;72.70;;;;;;4884864;29;20036;-84
2021/10/04 08:05:27;;;;;;;0.70;0.70;;;15.00;72.70;;;;;;4901354;29;20049;-85
2021/10/04 08:07:53;;;;;;;1.40;1.00;;;15.00;72.70;;;;;;4884464;29;20056;-84
2021/10/04 08:10:19;;;;;;;0.75;0.75;;;15.00;72.70;;;;;;4869880;29;20414;-84
2021/10/04 08:12:45;;;;;;;1.10;0.95;;;15.00;72.70;;;;;;4868984;29;20458;-85
2021/10/04 08:15:12;;;;;;;1.08;0.80;;;15.00;72.70;;;;;;4900958;29;20070;-85
2021/10/04 08:17:38;;;;;;;1.00;0.90;;;15.00;72.70;;;;;;4884854;29;20045;-85
2021/10/04 08:20:08;;;;;;;0.85;0.80;;;15.00;72.70;;;;;;4868953;29;20035;-85
2021/10/04 08:22:38;;;;;;;1.13;0.90;;;15.00;72.70;;;;;;4884345;29;20570;-84
2021/10/04 08:25:07;;;;;;;1.45;0.70;;;15.00;72.70;;;;;;4884299;29;20067;-84
2021/10/04 08:27:32;;;;;;;0.70;0.70;;;15.00;72.70;;;;;;4868858;29;20032;-85
2021/10/04 08:29:58;;;;;;;0.80;0.80;;;15.00;72.70;;;;;;4900874;29;20048;-85
2021/10/04 08:32:24;;;;;;;0.80;0.80;;;15.00;72.70;;;;;;4884200;29;20477;-81
2021/10/04 08:34:50;;;;;;;0.98;0.80;;;15.00;72.70;;;;;;4883270;29;20029;-82
2021/10/04 08:37:15;;;;;;;0.85;0.80;;;15.00;72.70;;;;;;4884037;29;20367;-83
2021/10/04 08:39:41;;;;;;;0.70;0.70;;;15.00;72.70;;;;;;4883678;29;20041;-82
2021/10/04 08:42:07;;;;;;;1.58;0.75;;;15.10;72.80;;;;;;4884045;29;20172;-81
2021/10/04 08:44:33;;;;;;;1.40;0.73;;;15.10;72.80;;;;;;4883169;29;20126;-80
2021/10/04 08:46:59;;;;;;;1.00;0.80;;;15.10;72.90;;;;;;4899798;29;20100;-80
2021/10/04 08:49:26;;;;;;;1.00;0.90;;;15.10;72.90;;;;;;4867232;29;20405;-82
2021/10/04 08:51:52;;;;;;;0.90;0.90;;;15.10;72.90;;;;;;4868558;29;20139;-84
2021/10/04 08:54:24;;;;;;;0.70;0.70;;;15.10;72.90;;;;;;4868427;29;20064;-80
2021/10/04 08:56:52;;;;;;;0.70;0.70;;;15.10;72.90;;;;;;4883238;29;20083;-81
2021/10/04 08:59:17;;;;;;;0.93;0.70;;;15.10;73.50;;;;;;4867631;29;20478;-79
2021/10/04 09:01:43;;;;;;;1.00;0.80;;;15.20;72.90;;;;;;4867650;29;20044;-82
2021/10/04 09:04:09;;;;;;;1.58;1.10;;;15.20;72.90;;;;;;4867702;29;20039;-83
2021/10/04 09:06:36;;;;;;;0.70;0.70;;;15.20;72.80;;;;;;4883124;29;20135;-82
2021/10/04 09:09:04;;;;;;;0.80;0.77;;;15.30;72.80;;;;;;4883676;29;20106;-82
2021/10/04 09:11:29;;;;;;;1.20;1.00;;;15.30;72.80;;;;;;4867269;29;20047;-82
2021/10/04 09:14:09;;;;;;;0.80;0.80;;;15.30;72.70;;;;;;4882620;29;20029;-82
2021/10/04 09:16:50;;;;;;;0.70;0.70;;;15.40;72.80;;;;;;4882973;29;20099;-82
2021/10/04 09:19:26;;;;;;;0.80;0.80;;;15.40;72.80;;;;;;4899220;29;20043;-82
2021/10/04 09:22:13;;;;;;;0.80;0.80;;;15.40;72.60;;;;;;4883342;29;20396;-82
2021/10/04 09:24:47;;;;;;;0.88;0.80;;;15.50;72.70;;;;;;4883396;29;20044;-83
2021/10/04 09:27:24;;;;;;;;;;;15.50;72.60;;;;;;4883358;29;20036;-81
2021/10/04 09:29:51;;;;;;;0.70;0.70;;;15.60;72.40;;;;;;4882896;29;19934;-82
2021/10/04 09:32:34;;;;;;;1.67;0.77;;;15.60;72.30;;;;;;4883014;29;20033;-83
2021/10/04 09:35:12;;;;;;;1.20;0.90;;;15.60;72.60;;;;;;4867561;29;20115;-82
2021/10/04 09:37:38;;;;;;;1.27;0.80;;;15.70;72.60;;;;;;4883306;29;20040;-82
2021/10/04 09:40:04;;;;;;;1.30;1.00;;;15.70;72.40;;;;;;4867344;29;20024;-83
2021/10/04 09:42:39;;;;;;;0.90;0.80;;;15.80;72.40;;;;;;4898742;29;20061;-81
2021/10/04 09:45:07;;;;;;;0.73;0.73;;;15.90;72.50;;;;;;4867464;29;20037;-82
2021/10/04 09:47:38;;;;;;;0.80;0.73;;;15.90;72.40;;;;;;4882765;29;20442;-82
2021/10/04 09:50:28;;;;;;;1.10;0.80;;;16.00;72.40;;;;;;4899155;29;20123;-82
2021/10/04 09:53:02;;;;;;;0.70;0.70;;;16.00;72.40;;;;;;4882413;29;20032;-83
2021/10/04 09:55:32;;;;;;;0.85;0.80;;;16.10;72.30;;;;;;4882908;29;20043;-80
2021/10/04 09:58:01;;;;;;;0.65;0.65;;;16.20;72.40;;;;;;4882381;29;20053;-81
2021/10/04 10:00:36;;;;;;;2.75;1.08;;;16.20;72.30;;;;;;4870438;29;20386;-80
2021/10/04 10:03:02;;;;;;;;;;;16.30;72.40;;;;;;4918737;29;20044;-83
2021/10/04 10:05:34;;;;;;;1.10;0.85;;;16.40;72.20;;;;;;4886794;29;19951;-82
2021/10/04 10:08:00;;;;;;;1.15;0.90;;;16.40;72.10;;;;;;4870703;29;20072;-83
2021/10/04 10:10:26;;;;;;;0.60;0.60;;;16.50;72.10;;;;;;4871132;29;20462;-83
2021/10/04 10:12:52;;;;;;;1.52;0.80;;;16.50;72.10;;;;;;4871256;29;20131;-83
2021/10/04 10:15:29;;;;;;;1.20;0.90;;;16.60;72.10;;;;;;4902208;29;20058;-80
2021/10/04 10:18:12;;;;;;;1.45;0.90;;;16.70;72.20;;;;;;4886258;29;20496;-84
2021/10/04 10:20:39;;;;;;;0.80;0.70;;;16.80;72.20;;;;;;4871908;29;20079;-84
2021/10/04 10:23:05;;;;;;;0.82;0.80;;;16.90;72.10;;;;;;4886607;29;20036;-85
2021/10/04 10:25:36;;;;;;;0.70;0.70;;;16.90;72.10;;;;;;4886491;29;20036;-83
2021/10/04 10:28:05;;;;;;;1.50;0.98;;;17.00;72.20;;;;;;4917796;29;20032;-82
2021/10/04 10:30:31;;;;;;;0.70;0.70;;;17.10;72.20;;;;;;4885731;29;20058;-81
2021/10/04 10:32:58;;;;;;;0.70;0.70;;;17.10;72.10;;;;;;4885982;29;20035;-80
2021/10/04 10:35:50;;;;;;;0.60;0.60;;;17.20;72.30;;;;;;4870759;29;20032;-83
2021/10/04 10:38:17;;;;;;;0.80;0.80;;;17.30;72.50;;;;;;4886496;29;20043;-83
2021/10/04 10:41:18;;;;;;;1.48;0.80;;;17.40;72.30;;;;;;4870486;29;20036;-81
2021/10/04 10:44:02;;;;;;;0.98;0.82;;;17.40;72.40;;;;;;4885479;29;20064;-81
2021/10/04 10:46:55;;;;;;;0.80;0.60;;;17.50;72.40;;;;;;4869949;29;20039;-82
2021/10/04 10:49:57;;;;;;;0.60;0.60;;;17.50;72.40;;;;;;4898946;29;20072;-81
2021/10/04 10:52:26;;;;;;;1.42;0.80;;;17.60;72.60;;;;;;4885211;29;20037;-81
2021/10/04 10:54:53;;;;;;;0.90;0.73;;;17.60;72.40;;;;;;4885806;29;20032;-83
2021/10/04 10:57:21;;;;;;;1.02;0.60;;;17.60;72.50;;;;;;4885289;29;20048;-82
2021/10/04 11:00:23;;;;;;;0.70;0.70;;;17.70;72.70;;;;;;4901612;29;20036;-81
2021/10/04 11:02:59;;;;;;;0.50;0.50;;;17.70;72.90;;;;;;4870022;29;20032;-81
2021/10/04 11:05:37;;;;;;;1.45;0.68;;;17.70;72.80;;;;;;4869373;29;20043;-81
2021/10/04 11:08:16;;;;;;;0.77;0.70;;;17.80;73.00;;;;;;4901445;29;20036;-81
2021/10/04 11:10:48;;;;;;;1.33;0.73;;;17.80;73.10;;;;;;4902019;29;20509;-81
2021/10/04 11:13:35;;;;;;;1.08;0.70;;;17.80;73.20;;;;;;4884545;29;20029;-81
2021/10/04 11:16:10;;;;;;;0.80;0.80;;;17.90;73.50;;;;;;4901083;29;20108;-79
2021/10/04 11:18:48;;;;;;;2.28;0.77;;;17.90;73.50;;;;;;4885095;29;20044;-81
2021/10/04 11:21:20;;;;;;;0.65;0.60;;;17.90;73.60;;;;;;4916141;29;20035;-81
2021/10/04 11:23:52;;;;;;;0.70;0.70;;;18.00;73.60;;;;;;4881579;29;20032;-82
2021/10/04 11:26:25;;;;;;;0.88;0.65;;;18.00;73.80;;;;;;4884034;29;20033;-81
2021/10/04 11:28:57;;;;;;;1.05;0.75;;;18.00;73.70;;;;;;4885692;29;20032;-81
2021/10/04 11:31:50;;;;;;;0.70;0.60;;;18.00;73.80;;;;;;4884845;29;20024;-82
2021/10/04 11:34:19;;;;;;;0.70;0.60;;;18.10;74.10;;;;;;4881964;29;20482;-81
2021/10/04 11:36:53;;;;;;;0.80;0.60;;;18.10;73.90;;;;;;4901605;29;20465;-82
2021/10/04 11:39:30;;;;;;;1.23;0.80;;;18.10;73.90;;;;;;4885083;29;20036;-82
2021/10/04 11:42:04;;;;;;;0.70;0.60;;;18.10;73.80;;;;;;4869101;29;20458;-81
2021/10/04 11:44:30;;;;;;;1.85;1.02;;;18.10;73.70;;;;;;4884330;29;20119;-82
2021/10/04 11:47:03;;;;;;;2.50;0.80;;;18.10;73.60;;;;;;4884159;29;20043;-82
2021/10/04 11:49:44;;;;;;;0.70;0.63;;;18.20;73.70;;;;;;4884367;29;20100;-82
2021/10/04 11:52:18;;;;;;;1.23;0.77;;;18.20;73.80;;;;;;4884067;29;20485;-82
2021/10/04 11:54:46;;;;;;;0.50;0.50;;;18.20;73.60;;;;;;4868462;29;20040;-80
2021/10/04 11:57:21;;;;;;;0.90;0.60;;;18.20;73.60;;;;;;4883694;29;20055;-82
2021/10/04 11:59:56;;;;;;;;;;;18.20;73.60;;;;;;4884285;29;20025;-82
2021/10/04 12:02:28;;;;;;;0.75;0.63;;;18.20;73.40;;;;;;4900634;29;20380;-81
2021/10/04 12:05:19;;;;;;;0.57;0.57;;;18.20;73.40;;;;;;4883827;29;20056;-81
2021/10/04 12:08:05;;;;;;;1.15;0.70;;;18.20;73.60;;;;;;4883273;29;20064;-81
2021/10/04 12:10:48;;;;;;;1.55;0.75;;;18.30;73.70;;;;;;4883827;29;20366;-80
2021/10/04 12:13:18;;;;;;;1.92;0.73;;;18.30;73.60;;;;;;4900657;29;20036;-80
2021/10/04 12:15:44;;;;;;;1.35;0.80;;;18.30;73.50;;;;;;4900684;29;20103;-81
2021/10/04 12:18:19;;;;;;;1.73;0.88;;;18.30;73.50;;;;;;4868257;29;20051;-82
2021/10/04 12:20:45;;;;;;;1.02;0.70;;;18.30;73.60;;;;;;4868138;29;20044;-81
2021/10/04 12:23:23;;;;;;;0.75;0.70;;;18.40;73.50;;;;;;4883341;29;20033;-81
2021/10/04 12:25:52;;;;;;;1.15;0.82;;;18.40;73.40;;;;;;4900507;29;20483;-82
2021/10/04 12:28:19;;;;;;;1.45;0.82;;;18.40;73.40;;;;;;4883050;29;20041;-81
2021/10/04 12:30:50;;;;;;;1.58;0.80;;;18.40;73.30;;;;;;4883787;29;20123;-81
2021/10/04 12:33:16;;;;;;;0.82;0.60;;;18.40;73.20;;;;;;4882871;29;20040;-81
2021/10/04 12:35:43;;;;;;;0.85;0.60;;;18.40;73.20;;;;;;4883238;29;20068;-81
2021/10/04 12:38:17;;;;;;;1.88;0.80;;;18.50;73.30;;;;;;4867645;29;20044;-81
2021/10/04 12:40:47;;;;;;;1.30;0.90;;;18.50;73.10;;;;;;4883395;29;20092;-80
2021/10/04 12:43:24;;;;;;;0.60;0.60;;;18.50;73.10;;;;;;4883152;29;20043;-81
2021/10/04 12:46:06;;;;;;;0.75;0.52;;;18.60;73.20;;;;;;4883658;29;20396;-82
2021/10/04 12:48:37;;;;;;;1.02;0.63;;;18.50;73.10;;;;;;4884175;29;20060;-81
2021/10/04 12:51:09;;;;;;;1.77;0.80;;;18.50;73.00;;;;;;4867489;29;20083;-81
2021/10/04 12:53:44;;;;;;;1.20;0.80;;;18.60;73.00;;;;;;4914174;29;20036;-81